createdAt,value
2024-03-14T00:00:35.798Z,14.35
2024-03-14T00:03:38.397Z,12.20
2024-03-14T00:06:40.396Z,15.57
2024-03-14T00:09:42.659Z,12.20
2024-03-14T00:12:46.753Z,16.35
2024-03-14T00:15:48.956Z,13.25
2024-03-14T00:18:50.888Z,15.45
2024-03-14T00:21:53.085Z,16.95
2024-03-14T00:24:55.041Z,15.73
2024-03-14T00:27:57.998Z,16.70
2024-03-14T00:31:00.970Z,15.50
2024-03-14T00:34:03.226Z,18.62
2024-03-14T00:37:08.301Z,16.62
2024-03-14T00:40:12.359Z,16.35
2024-03-14T00:43:15.470Z,13.77
2024-03-14T00:46:17.702Z,15.05
2024-03-14T00:49:19.617Z,12.63
2024-03-14T00:52:21.771Z,14.75
2024-03-14T00:55:23.661Z,9.10
2024-03-14T00:58:25.882Z,16.65
2024-03-14T01:01:27.879Z,14.57
2024-03-14T01:04:30.463Z,13.80
2024-03-14T01:07:33.295Z,13.27
2024-03-14T01:10:35.491Z,13.57
2024-03-14T01:13:37.382Z,13.68
2024-03-14T01:16:42.556Z,13.32
2024-03-14T01:19:44.432Z,15.57
2024-03-14T01:22:46.653Z,13.90
2024-03-14T01:25:48.636Z,11.40
2024-03-14T01:28:51.332Z,14.32
2024-03-14T01:31:53.338Z,12.73
2024-03-14T01:34:55.563Z,12.60
2024-03-14T01:37:57.503Z,9.52
2024-03-14T01:40:59.725Z,12.50
2024-03-14T01:44:02.261Z,11.80
2024-03-14T01:47:05.710Z,12.87
2024-03-14T01:50:09.344Z,13.45
2024-03-14T01:53:12.650Z,14.93
2024-03-14T01:56:15.208Z,15.30
2024-03-14T01:59:17.477Z,14.00
2024-03-14T02:02:19.847Z,11.57
2024-03-14T02:05:29.505Z,12.97
2024-03-14T02:08:31.608Z,7.90
2024-03-14T02:11:34.065Z,13.57
2024-03-14T02:14:37.125Z,11.70
2024-03-14T02:17:39.329Z,10.80
2024-03-14T02:20:41.614Z,8.77
2024-03-14T02:23:43.740Z,11.25
2024-03-14T02:26:45.723Z,12.32
2024-03-14T02:29:47.975Z,13.10
2024-03-14T02:32:50.007Z,12.75
2024-03-14T02:35:52.369Z,12.50
2024-03-14T02:38:55.448Z,13.15
2024-03-14T02:41:57.763Z,10.77
2024-03-14T02:45:02.017Z,17.15
2024-03-14T02:48:06.164Z,10.68
2024-03-14T02:51:08.084Z,12.45
2024-03-14T02:54:10.642Z,10.18
2024-03-14T02:57:13.024Z,13.65
2024-03-14T03:00:18.052Z,9.33
2024-03-14T03:03:20.421Z,13.18
2024-03-14T03:06:22.834Z,12.77
2024-03-14T03:09:26.469Z,14.45
2024-03-14T03:12:28.806Z,10.55
2024-03-14T03:15:31.456Z,14.18
2024-03-14T03:18:33.885Z,7.20
2024-03-14T03:21:38.509Z,12.13
2024-03-14T03:24:40.878Z,11.48
2024-03-14T03:27:43.669Z,19.55
2024-03-14T03:30:45.923Z,9.30
2024-03-14T03:33:47.841Z,10.60
2024-03-14T03:36:51.477Z,10.85
2024-03-14T03:39:54.082Z,7.30
2024-03-14T03:42:56.325Z,8.20
2024-03-14T03:45:58.401Z,6.75
2024-03-14T03:49:00.692Z,9.85
2024-03-14T03:52:04.064Z,13.00
2024-03-14T03:58:08.926Z,11.27
2024-03-14T04:01:14.366Z,10.20
2024-03-14T04:04:18.106Z,9.10
2024-03-14T04:07:21.080Z,10.27
2024-03-14T04:10:25.081Z,11.40
2024-03-14T04:13:29.380Z,9.50
2024-03-14T04:16:31.614Z,11.80
2024-03-14T04:19:33.518Z,9.73
2024-03-14T04:22:36.183Z,11.55
2024-03-14T04:25:38.324Z,10.48
2024-03-14T04:28:40.732Z,9.55
2024-03-14T04:31:43.177Z,13.70
2024-03-14T04:34:45.335Z,11.77
2024-03-14T04:37:50.396Z,13.15
2024-03-14T04:40:53.098Z,7.75
2024-03-14T04:43:54.999Z,10.77
2024-03-14T04:47:00.014Z,13.98
2024-03-14T04:50:02.937Z,8.90
2024-03-14T04:53:05.881Z,14.55
2024-03-14T04:56:07.951Z,12.02
2024-03-14T04:59:10.474Z,7.10
2024-03-14T05:02:12.743Z,8.27
2024-03-14T05:05:14.932Z,12.00
2024-03-14T05:08:16.910Z,6.40
2024-03-14T05:11:19.150Z,18.67
2024-03-14T05:14:21.083Z,19.08
2024-03-14T05:17:23.314Z,13.95
2024-03-14T05:20:25.204Z,14.18
2024-03-14T05:27:44.516Z,9.52
2024-03-14T05:30:58.895Z,15.60
2024-03-14T05:34:01.197Z,24.05
2024-03-14T05:37:03.607Z,11.10
2024-03-14T05:40:06.011Z,9.75
2024-03-14T05:43:08.266Z,10.83
2024-03-14T05:46:10.147Z,8.80
2024-03-14T05:49:12.342Z,14.10
2024-03-14T05:52:14.326Z,10.75
2024-03-14T05:55:16.560Z,14.73
2024-03-14T05:58:19.161Z,16.45
2024-03-14T06:01:22.656Z,15.23
2024-03-14T06:04:25.783Z,12.23
2024-03-14T06:07:28.161Z,13.52
2024-03-14T06:10:30.624Z,12.52
2024-03-14T06:13:33.098Z,15.20
2024-03-14T06:16:35.812Z,16.23
2024-03-14T06:19:37.778Z,14.80
2024-03-14T06:22:45.951Z,16.17
2024-03-14T06:25:48.347Z,15.32
2024-03-14T06:28:50.666Z,10.55
2024-03-14T06:31:52.548Z,14.10
2024-03-14T06:34:54.718Z,17.58
2024-03-14T06:37:57.570Z,19.48
2024-03-14T06:41:00.712Z,16.98
2024-03-14T06:44:03.134Z,17.10
2024-03-14T06:47:07.084Z,18.08
2024-03-14T06:50:11.197Z,18.65
2024-03-14T06:53:14.188Z,21.17
2024-03-14T06:56:18.382Z,17.60
2024-03-14T06:59:20.602Z,21.25
2024-03-14T07:02:22.774Z,21.08
2024-03-14T07:05:25.609Z,16.48
2024-03-14T07:08:27.811Z,19.17
2024-03-14T07:11:33.921Z,18.98
2024-03-14T07:14:35.806Z,20.37
2024-03-14T07:17:38.916Z,19.83
2024-03-14T07:20:45.456Z,17.10
2024-03-14T07:23:50.186Z,20.67
2024-03-14T07:26:55.579Z,18.85
2024-03-14T07:30:00.802Z,20.67
2024-03-14T07:33:03.104Z,17.98
2024-03-14T07:36:07.063Z,18.60
2024-03-14T07:39:12.090Z,17.92
2024-03-14T07:42:14.558Z,15.30
2024-03-14T07:45:20.433Z,18.50
2024-03-14T07:48:23.614Z,20.42
2024-03-14T07:51:26.815Z,13.02
2024-03-14T07:54:29.901Z,13.80
2024-03-14T07:57:32.121Z,18.08
2024-03-14T08:00:35.067Z,15.63
2024-03-14T08:03:40.182Z,15.00
2024-03-14T08:06:45.156Z,14.25
2024-03-14T08:09:49.095Z,16.83
2024-03-14T08:12:51.080Z,13.80
2024-03-14T08:16:00.832Z,14.43
2024-03-14T08:19:03.133Z,14.85
2024-03-14T08:22:07.781Z,15.25
2024-03-14T08:25:17.209Z,13.52
2024-03-14T08:28:20.712Z,12.77
2024-03-14T08:31:23.553Z,16.80
2024-03-14T08:34:29.090Z,15.73
2024-03-14T08:37:31.389Z,14.57
2024-03-14T08:40:34.840Z,16.40
2024-03-14T08:43:36.963Z,13.85
2024-03-14T08:46:39.146Z,21.15
2024-03-14T08:49:41.057Z,14.05
2024-03-14T08:52:43.964Z,18.20
2024-03-14T08:56:01.241Z,16.63
2024-03-14T08:59:03.565Z,14.32
2024-03-14T09:02:09.169Z,12.50
2024-03-14T09:05:15.671Z,16.75
2024-03-14T09:08:23.190Z,18.00
2024-03-14T09:11:29.208Z,15.25
2024-03-14T09:14:32.395Z,17.42
2024-03-14T09:17:34.786Z,18.62
2024-03-14T09:20:36.709Z,14.43
2024-03-14T09:23:43.194Z,13.25
2024-03-14T09:26:46.444Z,12.60
2024-03-14T09:29:48.727Z,19.37
2024-03-14T09:32:51.925Z,14.50
2024-03-14T09:35:54.627Z,17.00
2024-03-14T09:38:57.458Z,16.00
2024-03-14T09:42:00.764Z,17.40
2024-03-14T09:45:03.314Z,15.77
2024-03-14T09:48:07.074Z,18.08
2024-03-14T09:51:10.284Z,14.85
2024-03-14T09:54:12.595Z,17.95
2024-03-14T09:57:14.598Z,13.62
2024-03-14T10:00:16.977Z,13.62
2024-03-14T10:03:22.852Z,20.90
2024-03-14T10:06:24.876Z,16.10
2024-03-14T10:12:33.261Z,17.27
2024-03-14T10:15:39.185Z,12.68
2024-03-14T10:18:42.240Z,14.45
2024-03-14T10:21:46.252Z,15.60
2024-03-14T10:24:48.359Z,9.15
2024-03-14T10:28:00.425Z,12.15
2024-03-14T10:31:10.615Z,12.37
2024-03-14T10:34:16.673Z,12.68
2024-03-14T10:37:20.268Z,12.73
2024-03-14T10:40:29.215Z,11.85
2024-03-14T10:43:42.138Z,13.30
2024-03-14T10:46:54.674Z,12.80
2024-03-14T10:49:57.635Z,15.20
2024-03-14T10:53:01.826Z,13.43
2024-03-14T10:56:05.385Z,12.57
2024-03-14T10:59:09.844Z,12.37
2024-03-14T11:02:15.807Z,17.85
2024-03-14T11:05:19.823Z,12.57
2024-03-14T11:08:23.127Z,13.80
2024-03-14T11:11:25.927Z,15.60
2024-03-14T11:14:48.574Z,13.85
2024-03-14T11:17:53.469Z,11.02
2024-03-14T11:20:56.320Z,11.25
2024-03-14T11:24:01.896Z,12.95
2024-03-14T11:27:05.585Z,14.38
2024-03-14T11:30:16.894Z,14.80
2024-03-14T11:33:19.131Z,12.85
2024-03-14T11:36:23.203Z,14.70
2024-03-14T11:39:27.429Z,13.82
2024-03-14T11:42:29.815Z,13.70
2024-03-14T11:45:33.077Z,13.90
2024-03-14T11:48:35.764Z,12.50
2024-03-14T11:51:42.356Z,13.70
2024-03-14T11:54:44.825Z,11.52
2024-03-14T11:57:50.899Z,14.32
2024-03-14T12:00:56.164Z,12.15
2024-03-14T12:03:59.450Z,10.52
2024-03-14T12:07:04.652Z,16.52
2024-03-14T12:10:10.330Z,11.25
2024-03-14T12:13:20.633Z,13.48
2024-03-14T12:16:24.238Z,12.40
2024-03-14T12:19:27.052Z,11.27
2024-03-14T12:22:29.386Z,11.32
2024-03-14T12:25:31.584Z,7.47
2024-03-14T12:28:35.510Z,9.57
2024-03-14T12:31:38.062Z,10.48
2024-03-14T12:34:43.388Z,9.18
2024-03-14T12:37:47.173Z,14.65
2024-03-14T12:40:54.491Z,8.95
2024-03-14T12:43:57.516Z,10.02
2024-03-14T12:50:02.481Z,11.07
2024-03-14T12:53:06.837Z,8.77
2024-03-14T12:56:09.291Z,9.45
2024-03-14T12:59:20.537Z,8.07
2024-03-14T13:02:25.848Z,9.82
2024-03-14T13:05:30.066Z,9.50
2024-03-14T13:08:35.131Z,9.60
2024-03-14T13:11:38.040Z,11.43
2024-03-14T13:14:40.009Z,9.85
2024-03-14T13:17:55.146Z,8.50
2024-03-14T13:20:58.252Z,9.38
2024-03-14T13:24:03.788Z,9.20
2024-03-14T13:27:06.412Z,9.18
2024-03-14T13:30:09.678Z,10.23
2024-03-14T13:33:14.350Z,8.32
2024-03-14T13:36:18.604Z,9.48
2024-03-14T13:39:20.737Z,8.60
2024-03-14T13:42:25.193Z,15.37
2024-03-14T13:45:29.446Z,11.63
2024-03-14T13:48:34.411Z,10.68
2024-03-14T13:51:37.509Z,9.90
2024-03-14T13:54:40.672Z,10.45
2024-03-14T13:57:42.888Z,10.10
2024-03-14T14:00:51.199Z,10.13
2024-03-14T14:03:58.792Z,10.43
2024-03-14T14:07:00.713Z,8.40
2024-03-14T14:10:03.167Z,7.95
2024-03-14T14:13:06.602Z,8.15
2024-03-14T14:16:12.715Z,7.80
2024-03-14T14:19:14.927Z,7.75
2024-03-14T14:22:19.488Z,9.30
2024-03-14T14:25:21.958Z,9.65
2024-03-14T14:28:24.242Z,8.33
2024-03-14T14:31:26.519Z,9.93
2024-03-14T14:34:29.605Z,7.37
2024-03-14T14:37:31.727Z,8.15
2024-03-14T14:40:34.646Z,10.13
2024-03-14T14:43:36.584Z,13.87
2024-03-14T14:46:39.532Z,15.52
2024-03-14T14:49:41.530Z,7.97
2024-03-14T14:52:44.151Z,9.07
2024-03-14T14:55:47.128Z,11.85
2024-03-14T14:58:49.644Z,10.07
2024-03-14T15:01:51.623Z,9.63
2024-03-14T15:04:54.099Z,12.27
2024-03-14T15:07:56.756Z,12.95
2024-03-14T15:10:59.126Z,12.05
2024-03-14T15:14:04.916Z,8.63
2024-03-14T15:17:09.677Z,11.63
2024-03-14T15:20:22.063Z,8.68
2024-03-14T15:23:25.004Z,10.15
2024-03-14T15:26:26.888Z,9.10
2024-03-14T15:29:29.154Z,11.73
2024-03-14T15:32:31.173Z,9.85
2024-03-14T15:35:35.209Z,9.52
2024-03-14T15:38:37.117Z,12.10
2024-03-14T15:41:42.147Z,13.70
2024-03-14T15:44:44.752Z,9.07
2024-03-14T15:47:47.206Z,10.47
2024-03-14T15:50:50.542Z,9.40
2024-03-14T15:53:52.925Z,9.07
2024-03-14T15:56:55.270Z,10.68
2024-03-14T15:59:58.917Z,10.63
2024-03-14T16:03:01.788Z,9.90
2024-03-14T16:06:05.407Z,10.52
2024-03-14T16:09:10.725Z,7.65
2024-03-14T16:12:13.285Z,9.80
2024-03-14T16:15:17.879Z,11.88
2024-03-14T16:18:21.042Z,10.25
2024-03-14T16:21:26.226Z,9.63
2024-03-14T16:24:29.026Z,11.95
2024-03-14T16:27:32.282Z,9.68
2024-03-14T16:30:35.637Z,9.80
2024-03-14T16:33:38.588Z,11.65
2024-03-14T16:36:41.204Z,10.23
2024-03-14T16:39:43.324Z,8.10
2024-03-14T16:42:48.153Z,13.32
2024-03-14T16:45:50.234Z,9.52
2024-03-14T16:48:56.401Z,13.45
2024-03-14T16:51:58.496Z,9.65
2024-03-14T16:55:00.697Z,7.93
2024-03-14T16:58:05.760Z,9.73
2024-03-14T17:01:08.372Z,9.45
2024-03-14T17:04:10.883Z,10.63
2024-03-14T17:07:13.125Z,11.17
2024-03-14T17:10:18.533Z,8.57
2024-03-14T17:13:20.784Z,9.02
2024-03-14T17:16:24.802Z,10.75
2024-03-14T17:19:28.154Z,8.50
2024-03-14T17:22:30.111Z,10.75
2024-03-14T17:25:33.796Z,9.65
2024-03-14T17:28:36.767Z,8.95
2024-03-14T17:31:42.038Z,8.65
2024-03-14T17:34:44.028Z,10.23
2024-03-14T17:37:46.357Z,10.63
2024-03-14T17:40:48.891Z,9.50
2024-03-14T17:43:51.081Z,10.93
2024-03-14T17:46:53.021Z,7.85
2024-03-14T17:49:55.232Z,7.93
2024-03-14T17:52:57.148Z,8.95
2024-03-14T17:56:00.664Z,9.68
2024-03-14T17:59:02.808Z,9.25
2024-03-14T18:02:08.384Z,10.73
2024-03-14T18:05:11.326Z,8.75
2024-03-14T18:08:13.378Z,10.90
2024-03-14T18:11:15.698Z,8.18
2024-03-14T18:14:20.331Z,9.02
2024-03-14T18:17:25.727Z,7.55
2024-03-14T18:20:29.261Z,12.45
2024-03-14T18:23:31.628Z,12.48
2024-03-14T18:26:35.572Z,10.85
2024-03-14T18:29:37.790Z,12.40
2024-03-14T18:32:40.243Z,11.52
2024-03-14T18:35:43.073Z,10.20
2024-03-14T18:38:45.253Z,10.98
2024-03-14T18:41:48.485Z,13.10
2024-03-14T18:44:51.946Z,10.30
2024-03-14T18:47:54.998Z,11.30
2024-03-14T18:50:57.294Z,13.32
2024-03-14T18:53:59.866Z,11.20
2024-03-14T18:57:06.018Z,11.73
2024-03-14T19:00:20.993Z,9.95
2024-03-14T19:03:26.799Z,11.45
2024-03-14T19:06:35.351Z,17.87
2024-03-14T19:09:38.694Z,10.93
2024-03-14T19:12:42.514Z,13.00
2024-03-14T19:15:44.746Z,11.12
2024-03-14T19:18:47.283Z,12.50
2024-03-14T19:21:51.289Z,13.95
2024-03-14T19:24:55.578Z,14.40
2024-03-14T19:27:58.203Z,10.23
2024-03-14T19:31:00.701Z,9.57
2024-03-14T19:34:03.225Z,10.65
2024-03-14T19:37:05.721Z,10.50
2024-03-14T19:40:09.958Z,12.82
2024-03-14T19:43:15.307Z,12.00
2024-03-14T19:46:17.837Z,18.62
2024-03-14T19:49:21.116Z,18.30
2024-03-14T19:52:23.633Z,9.45
2024-03-14T19:55:26.475Z,11.43
2024-03-14T19:58:28.707Z,12.15
2024-03-14T20:01:31.674Z,11.33
2024-03-14T20:04:35.507Z,8.10
2024-03-14T20:07:37.909Z,13.27
2024-03-14T20:10:40.382Z,14.17
2024-03-14T20:13:42.374Z,13.23
2024-03-14T20:16:45.206Z,14.93
2024-03-14T20:19:47.658Z,21.25
2024-03-14T20:22:49.927Z,13.97
2024-03-14T20:25:51.930Z,17.12
2024-03-14T20:28:54.144Z,14.32
2024-03-14T20:31:56.224Z,14.70
2024-03-14T20:34:58.762Z,11.73
2024-03-14T20:38:02.172Z,12.23
2024-03-14T20:44:18.570Z,10.93
2024-03-14T20:47:20.829Z,12.27
2024-03-14T20:50:24.845Z,12.98
2024-03-14T20:53:27.473Z,14.23
2024-03-14T20:56:34.075Z,14.13
2024-03-14T20:59:36.292Z,14.30
2024-03-14T21:02:40.832Z,16.67
2024-03-14T21:05:43.309Z,18.15
2024-03-14T21:08:52.691Z,17.25
2024-03-14T21:11:54.854Z,17.60
2024-03-14T21:14:56.775Z,17.92
2024-03-14T21:17:59.189Z,17.60
2024-03-14T21:21:01.130Z,16.67
2024-03-14T21:24:05.472Z,11.12
2024-03-14T21:27:08.036Z,11.52
2024-03-14T21:30:11.953Z,14.20
2024-03-14T21:36:16.015Z,17.73
2024-03-14T21:39:19.542Z,19.23
2024-03-14T21:42:22.262Z,14.68
2024-03-14T21:45:25.996Z,14.95
2024-03-14T21:48:28.409Z,23.10
2024-03-14T21:51:30.418Z,14.90
2024-03-14T21:54:32.860Z,19.27
2024-03-14T21:57:35.073Z,17.83
2024-03-14T22:00:37.616Z,19.02
2024-03-14T22:03:41.334Z,13.88
2024-03-14T22:09:45.627Z,13.05
2024-03-14T22:12:47.719Z,14.75
2024-03-14T22:15:50.034Z,17.17
2024-03-14T22:18:53.445Z,17.10
2024-03-14T22:21:55.880Z,16.50
2024-03-14T22:24:57.801Z,16.08
2024-03-14T22:27:59.991Z,18.65
2024-03-14T22:31:11.216Z,14.95
2024-03-14T22:34:14.794Z,13.48
2024-03-14T22:37:17.282Z,15.98
2024-03-14T22:40:19.746Z,14.65
2024-03-14T22:43:21.793Z,19.40
2024-03-14T22:46:24.173Z,17.15
2024-03-14T22:49:26.210Z,14.85
2024-03-14T22:52:28.544Z,14.52
2024-03-14T22:55:30.593Z,13.93
2024-03-14T22:58:43.098Z,15.35
2024-03-14T23:01:45.204Z,19.85
2024-03-14T23:04:47.730Z,16.90
2024-03-14T23:07:50.305Z,15.57
2024-03-14T23:10:52.502Z,19.83
2024-03-14T23:13:54.444Z,13.75
2024-03-14T23:16:56.858Z,11.45
2024-03-14T23:19:59.020Z,11.85
2024-03-14T23:23:02.240Z,15.00
2024-03-14T23:26:06.330Z,16.57
2024-03-14T23:29:08.617Z,19.27
2024-03-14T23:32:11.768Z,13.88
2024-03-14T23:35:14.681Z,17.85
2024-03-14T23:38:18.105Z,11.50
2024-03-14T23:41:20.362Z,11.35
2024-03-14T23:44:22.394Z,17.50
2024-03-14T23:47:25.700Z,16.02
2024-03-14T23:50:28.092Z,18.10
2024-03-14T23:53:30.287Z,20.53
2024-03-14T23:56:32.205Z,17.80
2024-03-14T23:59:34.431Z,13.73
